Time;durP1;ratioP1;P1;durP2;ratioP2;P2;SDS_P1;SDS_P2;PMS_P1;PMS_P2;Temp;Humidity;BMP_temperature;BMP_pressure;BME280_temperature;BME280_humidity;BME280_pressure;Samples;Min_cycle;Max_cycle;Signal;HPM_P1;HPM_P2
2023/07/02 00:01:47;;;;;;;;;39.33;32.33;;;;;21.25;55.09;100499.81;4825095;29;45402;-73
2023/07/02 00:04:15;;;;;;;;;43.00;33.33;;;;;21.16;55.38;100494.69;4825037;29;45541;-73
2023/07/02 00:06:44;;;;;;;;;25.67;21.33;;;;;21.10;55.70;100498.47;4825432;29;45369;-73
2023/07/02 00:09:10;;;;;;;;;38.00;33.67;;;;;21.06;55.75;100504.06;4825303;29;45558;-73
2023/07/02 00:11:41;;;;;;;;;36.00;31.33;;;;;21.07;55.66;100498.59;4825730;29;46205;-74
2023/07/02 00:14:07;;;;;;;;;36.67;33.33;;;;;20.97;55.83;100502.56;4824214;29;45434;-73
2023/07/02 00:16:33;;;;;;;;;41.67;34.00;;;;;20.90;56.02;100501.84;4824989;29;45463;-73
2023/07/02 00:18:59;;;;;;;;;37.00;31.00;;;;;20.85;56.55;100500.25;4823658;29;45582;-75
2023/07/02 00:21:27;;;;;;;;;40.33;33.33;;;;;20.81;56.66;100496.75;4823771;29;47099;-74
2023/07/02 00:23:56;;;;;;;;;34.67;31.00;;;;;20.81;57.06;100495.88;4823564;29;45435;-74
2023/07/02 00:26:23;;;;;;;;;39.33;33.33;;;;;20.81;56.90;100496.75;4824906;29;45503;-74
2023/07/02 00:28:48;;;;;;;;;41.00;33.33;;;;;20.84;56.72;100502.03;4823310;29;45452;-74
2023/07/02 00:31:14;;;;;;;;;50.33;39.67;;;;;20.84;57.54;100498.47;4825088;29;45404;-73
2023/07/02 00:33:39;;;;;;;;;38.00;33.00;;;;;20.78;57.04;100497.75;4823517;29;45892;-73
2023/07/02 00:36:04;;;;;;;;;26.33;23.33;;;;;20.71;57.35;100492.56;4824922;29;46086;-73
2023/07/02 00:38:30;;;;;;;;;38.00;32.67;;;;;20.67;57.19;100489.09;4833048;29;45469;-74
2023/07/02 00:40:56;;;;;;;;;35.33;32.67;;;;;20.73;57.61;100493.41;4843287;29;45424;-74
2023/07/02 00:43:21;;;;;;;;;38.33;33.00;;;;;20.61;58.09;100491.09;4825901;29;45481;-73
2023/07/02 00:45:47;;;;;;;;;41.33;35.33;;;;;20.55;58.07;100494.84;4826066;29;45454;-73
2023/07/02 00:48:12;;;;;;;;;28.33;24.33;;;;;20.46;58.31;100493.31;4843044;29;45607;-73
2023/07/02 00:50:39;;;;;;;;;39.00;31.00;;;;;20.51;58.96;100499.44;4843014;29;45785;-72
2023/07/02 00:53:05;;;;;;;;;38.33;33.67;;;;;20.37;58.71;100497.16;4826137;29;45353;-74
2023/07/02 00:55:30;;;;;;;;;45.67;36.00;;;;;20.27;58.95;100490.28;4825997;29;44864;-74
2023/07/02 00:57:56;;;;;;;;;39.00;31.67;;;;;20.24;59.24;100493.09;4843335;29;45448;-74
2023/07/02 01:00:22;;;;;;;;;39.67;33.33;;;;;20.19;59.81;100495.91;4842823;29;45340;-73
2023/07/02 01:02:58;;;;;;;;;36.33;31.67;;;;;20.34;60.11;100496.38;4843286;29;45461;-72
2023/07/02 01:05:32;;;;;;;;;39.00;33.33;;;;;20.26;60.00;100501.13;4826980;29;45420;-74
2023/07/02 01:07:57;;;;;;;;;35.67;31.00;;;;;20.13;60.27;100496.06;4826709;29;45518;-73
2023/07/02 01:10:23;;;;;;;;;37.67;31.67;;;;;20.04;60.62;100492.78;4842704;29;45430;-72
2023/07/02 01:12:49;;;;;;;;;39.33;32.67;;;;;20.03;60.81;100496.41;4842686;29;45416;-73
2023/07/02 01:15:14;;;;;;;;;41.67;36.67;;;;;19.97;61.00;100495.63;4842975;29;45554;-73
2023/07/02 01:17:41;;;;;;;;;38.33;32.33;;;;;19.92;61.29;100492.19;4826418;29;45531;-74
2023/07/02 01:20:08;;;;;;;;;39.67;34.00;;;;;19.92;62.32;100491.31;4825458;29;47107;-74
2023/07/02 01:22:34;;;;;;;;;35.67;31.67;;;;;19.96;61.17;100514.59;4825786;29;45504;-74
2023/07/02 01:25:00;;;;;;;;;40.33;33.00;;;;;19.91;61.33;100503.91;4842568;29;45497;-73
2023/07/02 01:27:29;;;;;;;;;42.67;34.00;;;;;19.87;61.49;100510.31;4842852;29;45366;-73
2023/07/02 01:29:56;;;;;;;;;35.67;32.00;;;;;19.81;63.68;100506.91;4825643;29;45422;-73
2023/07/02 01:32:22;;;;;;;;;38.00;33.33;;;;;19.65;62.82;100503.72;4825836;29;45514;-74
2023/07/02 01:34:48;;;;;;;;;40.67;35.00;;;;;19.64;63.03;100512.75;4826309;29;45452;-75
2023/07/02 01:37:14;;;;;;;;;39.67;32.00;;;;;19.60;62.64;100511.94;4843070;29;45468;-73
2023/07/02 01:39:40;;;;;;;;;36.33;33.33;;;;;19.59;63.19;100512.84;4841308;29;45381;-74
2023/07/02 01:42:16;;;;;;;;;36.33;32.00;;;;;19.76;62.94;100512.44;4842855;29;45380;-72
2023/07/02 01:44:43;;;;;;;;;30.00;28.33;;;;;19.66;63.36;100506.38;4842990;29;45723;-73
2023/07/02 01:47:09;;;;;;;;;40.67;32.67;;;;;19.70;63.14;100507.19;4842850;29;45421;-74
2023/07/02 01:49:36;;;;;;;;;37.67;31.33;;;;;19.65;64.04;100498.31;4844022;29;46236;-73
2023/07/02 01:52:02;;;;;;;;;31.33;30.00;;;;;19.66;63.74;100510.91;4846059;29;45415;-72
2023/07/02 01:54:31;;;;;;;;;37.00;33.67;;;;;19.69;63.59;100498.22;4846153;29;45564;-73
2023/07/02 01:56:57;;;;;;;;;38.67;30.67;;;;;19.64;64.08;100504.66;4829280;29;45326;-73
2023/07/02 01:59:23;;;;;;;;;38.00;34.33;;;;;19.63;64.54;100501.06;4829077;29;48051;-73
2023/07/02 02:01:49;;;;;;;;;36.33;33.67;;;;;19.63;65.07;100506.44;4846151;29;45418;-73
2023/07/02 02:04:14;;;;;;;;;35.33;33.67;;;;;19.68;64.08;100509.94;4846685;29;45667;-73
2023/07/02 02:06:41;;;;;;;;;42.00;35.67;;;;;19.75;65.04;100508.88;4829621;29;45542;-73
2023/07/02 02:09:09;;;;;;;;;29.67;27.33;;;;;19.68;64.13;100503.66;4845503;29;45550;-73
2023/07/02 02:11:38;;;;;;;;;41.67;32.33;;;;;19.81;64.28;100506.91;4845499;29;45441;-74
2023/07/02 02:14:04;;;;;;;;;36.33;32.33;;;;;19.72;64.53;100503.53;4828591;29;45413;-74
2023/07/02 02:16:29;;;;;;;;;37.00;28.67;;;;;19.74;65.34;100495.41;4845154;29;45490;-73
2023/07/02 02:18:55;;;;;;;;;29.33;27.33;;;;;19.82;64.59;100506.00;4844735;29;47085;-74
2023/07/02 02:21:21;;;;;;;;;43.33;35.67;;;;;19.84;64.48;100509.53;4845238;29;45882;-74
2023/07/02 02:23:47;;;;;;;;;34.00;32.00;;;;;19.82;64.36;100508.69;4845532;29;45903;-74
2023/07/02 02:26:21;;;;;;;;;37.67;34.00;;;;;19.75;64.52;100514.28;4845400;29;45412;-74
2023/07/02 02:28:47;;;;;;;;;34.67;31.00;;;;;19.75;64.45;100516.97;4844878;29;45468;-73
2023/07/02 02:31:14;;;;;;;;;35.00;32.00;;;;;19.77;64.63;100512.41;4845152;29;45977;-74
2023/07/02 02:33:39;;;;;;;;;31.33;28.33;;;;;19.69;65.03;100521.59;4845431;29;45556;-74
2023/07/02 02:36:05;;;;;;;;;29.67;27.00;;;;;19.76;64.84;100510.63;4845653;29;45342;-73
2023/07/02 02:38:30;;;;;;;;;40.33;31.00;;;;;19.70;66.10;100510.78;4825433;29;45453;-74
2023/07/02 02:40:55;;;;;;;;;31.67;26.33;;;;;19.68;65.36;100520.72;4826603;29;45407;-73
2023/07/02 02:43:22;;;;;;;;;31.00;29.00;;;;;19.66;65.48;100517.19;4827136;29;45386;-74
2023/07/02 02:45:47;;;;;;;;;30.00;27.00;;;;;19.62;66.20;100511.91;4825562;29;45794;-74
2023/07/02 02:48:13;;;;;;;;;29.33;22.00;;;;;19.57;65.91;100522.81;4825066;29;46214;-74
2023/07/02 02:50:41;;;;;;;;;29.00;28.00;;;;;19.53;66.18;100516.63;4825359;29;45397;-74
2023/07/02 02:53:10;;;;;;;;;36.00;31.67;;;;;19.62;66.64;100518.19;4825366;29;45456;-74
2023/07/02 02:55:36;;;;;;;;;38.33;33.33;;;;;19.51;66.20;100517.56;4827243;29;45374;-74
2023/07/02 02:58:01;;;;;;;;;33.00;29.67;;;;;19.51;67.61;100522.97;4825713;29;47076;-73
2023/07/02 03:00:27;;;;;;;;;35.67;30.00;;;;;19.41;67.82;100521.44;4825603;29;45405;-73
2023/07/02 03:02:52;;;;;;;;;33.00;30.00;;;;;19.32;67.17;100536.06;4827007;29;45485;-73
2023/07/02 03:05:18;;;;;;;;;32.33;29.33;;;;;19.30;67.05;100532.50;4827297;29;45420;-73
2023/07/02 03:07:43;;;;;;;;;38.00;33.33;;;;;19.30;67.26;100540.59;4827212;29;45398;-73
2023/07/02 03:10:08;;;;;;;;;27.00;24.67;;;;;19.27;68.11;100529.88;4825052;29;45751;-73
2023/07/02 03:12:34;;;;;;;;;35.00;30.00;;;;;19.24;67.47;100528.16;4825276;29;45512;-74
2023/07/02 03:15:00;;;;;;;;;32.00;31.33;;;;;19.23;67.89;100525.47;4825690;29;45429;-73
2023/07/02 03:17:26;;;;;;;;;32.00;27.00;;;;;19.24;67.89;100525.44;4826781;29;46753;-74
2023/07/02 03:19:52;;;;;;;;;38.33;31.67;;;;;19.12;69.18;100521.25;4826394;29;45546;-73
2023/07/02 03:22:17;;;;;;;;;31.00;26.67;;;;;19.14;68.25;100523.91;4826425;29;45428;-73
2023/07/02 03:24:43;;;;;;;;;31.33;26.67;;;;;19.16;68.95;100539.13;4826209;29;45511;-73
2023/07/02 03:27:09;;;;;;;;;32.00;27.00;;;;;19.11;68.91;100529.41;4826353;29;45533;-74
2023/07/02 03:29:35;;;;;;;;;29.67;26.33;;;;;18.99;69.48;100533.28;4825639;29;45396;-73
2023/07/02 03:32:00;;;;;;;;;28.00;26.67;;;;;18.94;69.66;100533.34;4824887;29;45378;-73
2023/07/02 03:34:26;;;;;;;;;30.33;28.67;;;;;19.00;69.24;100548.50;4825628;29;45397;-73
2023/07/02 03:36:51;;;;;;;;;32.67;29.00;;;;;19.02;69.89;100540.38;4825742;29;45385;-73
2023/07/02 03:39:17;;;;;;;;;36.67;29.33;;;;;18.96;69.58;100541.41;4823726;29;45737;-73
2023/07/02 03:41:43;;;;;;;;;27.00;23.00;;;;;18.93;70.66;100545.06;4825634;29;45615;-73
2023/07/02 03:44:10;;;;;;;;;31.00;28.67;;;;;19.02;70.38;100552.03;4824069;29;45336;-73
2023/07/02 03:46:35;;;;;;;;;35.00;30.00;;;;;18.92;70.90;100551.38;4826182;29;45550;-72
2023/07/02 03:49:02;;;;;;;;;30.00;28.33;;;;;18.94;71.39;100554.91;4826194;29;45470;-73
2023/07/02 03:51:28;;;;;;;;;31.67;28.33;;;;;18.91;70.50;100560.41;4825970;29;45467;-74
2023/07/02 03:53:53;;;;;;;;;40.00;32.00;;;;;18.91;71.50;100557.69;4826216;29;45433;-73
2023/07/02 03:56:18;;;;;;;;;27.67;26.67;;;;;18.84;71.81;100557.88;4826739;29;45458;-74
2023/07/02 03:58:44;;;;;;;;;34.67;28.33;;;;;18.86;70.83;100556.91;4826275;29;45473;-73
2023/07/02 04:01:09;;;;;;;;;32.33;29.33;;;;;18.89;71.62;100556.84;4825714;29;45466;-73
2023/07/02 04:03:34;;;;;;;;;31.33;27.33;;;;;18.96;71.04;100569.25;4825836;29;45457;-73
2023/07/02 04:06:00;;;;;;;;;30.00;26.33;;;;;18.96;71.87;100571.06;4825462;29;46152;-74
2023/07/02 04:08:28;;;;;;;;;31.67;28.67;;;;;18.97;70.93;100565.63;4825441;29;45391;-73
2023/07/02 04:10:53;;;;;;;;;33.67;27.67;;;;;19.09;71.68;100566.28;4824378;29;45401;-73
2023/07/02 04:13:19;;;;;;;;;29.00;27.33;;;;;19.05;70.61;100564.59;4823357;29;45458;-73
2023/07/02 04:15:44;;;;;;;;;31.67;28.00;;;;;19.03;71.59;100566.41;4824883;29;46433;-73
2023/07/02 04:18:10;;;;;;;;;33.00;28.67;;;;;19.06;71.01;100577.13;4825351;29;45696;-73
2023/07/02 04:20:38;;;;;;;;;24.67;22.00;;;;;19.07;71.31;100570.81;4825509;29;45540;-73
2023/07/02 04:23:06;;;;;;;;;31.00;29.00;;;;;19.09;72.29;100574.38;4825686;29;45507;-74
2023/07/02 04:25:32;;;;;;;;;31.00;29.33;;;;;19.09;71.67;100579.78;4824605;29;45568;-72
2023/07/02 04:27:58;;;;;;;;;27.00;26.67;;;;;19.11;71.88;100581.50;4824707;29;45325;-73
2023/07/02 04:30:24;;;;;;;;;32.00;29.33;;;;;19.23;72.17;100588.41;4824154;29;45836;-74
2023/07/02 04:32:50;;;;;;;;;28.33;26.00;;;;;19.27;71.19;100583.81;4825718;29;45485;-74
2023/07/02 04:35:17;;;;;;;;;40.33;31.00;;;;;19.35;71.30;100588.09;4824859;29;45494;-75
2023/07/02 04:37:44;;;;;;;;;27.67;27.67;;;;;19.31;70.60;100597.19;4823800;29;45470;-73
2023/07/02 04:40:10;;;;;;;;;33.33;29.67;;;;;19.18;70.86;100579.53;4823320;29;45505;-74
2023/07/02 04:42:39;;;;;;;;;33.00;29.00;;;;;19.30;71.43;100590.00;4823650;29;45391;-73
2023/07/02 04:45:06;;;;;;;;;30.33;29.33;;;;;19.24;71.12;100590.16;4823578;29;47479;-73
2023/07/02 04:47:33;;;;;;;;;27.33;24.00;;;;;19.28;71.53;100581.06;4823592;29;45589;-73
2023/07/02 04:49:58;;;;;;;;;30.00;24.67;;;;;19.31;71.33;100594.50;4824658;29;45438;-73
2023/07/02 04:52:24;;;;;;;;;29.00;25.33;;;;;19.31;71.09;100597.19;4825214;29;45459;-73
2023/07/02 04:54:49;;;;;;;;;31.67;23.67;;;;;19.29;71.54;100596.34;4823133;29;48153;-73
2023/07/02 04:57:15;;;;;;;;;22.67;21.67;;;;;19.43;71.32;100587.91;4824702;29;45429;-73
2023/07/02 04:59:43;;;;;;;;;34.33;31.33;;;;;19.71;70.70;100592.63;4824773;29;45366;-73
2023/07/02 05:02:09;;;;;;;;;29.33;25.33;;;;;19.77;70.57;100590.66;4823917;29;45344;-73
2023/07/02 05:04:35;;;;;;;;;29.33;29.33;;;;;19.95;69.68;100583.00;4824659;29;45451;-73
2023/07/02 05:07:01;;;;;;;;;27.33;22.33;;;;;20.01;69.53;100590.91;4824758;29;45539;-73
2023/07/02 05:09:26;;;;;;;;;33.33;30.67;;;;;20.01;69.06;100582.81;4823340;29;45515;-73
2023/07/02 05:11:51;;;;;;;;;27.33;22.33;;;;;20.05;69.10;100587.22;4825130;29;45512;-74
2023/07/02 05:14:17;;;;;;;;;30.33;28.67;;;;;20.09;68.91;100585.31;4824880;29;45464;-73
2023/07/02 05:16:42;;;;;;;;;23.00;23.00;;;;;20.12;68.37;100593.34;4823259;29;45469;-73
2023/07/02 05:19:09;;;;;;;;;24.33;22.67;;;;;20.13;68.93;100589.69;4825011;29;45475;-73
2023/07/02 05:21:34;;;;;;;;;28.33;25.00;;;;;19.99;69.03;100595.47;4824715;29;45422;-73
2023/07/02 05:24:00;;;;;;;;;28.00;26.33;;;;;19.96;69.14;100595.56;4822563;29;47359;-73
2023/07/02 05:26:26;;;;;;;;;31.00;25.33;;;;;19.97;69.43;100600.91;4823874;29;45377;-73
2023/07/02 05:28:52;;;;;;;;;29.33;24.67;;;;;19.97;69.33;100598.22;4824467;29;45407;-73
2023/07/02 05:31:17;;;;;;;;;23.00;22.00;;;;;20.02;69.71;100592.72;4823435;29;45368;-73
2023/07/02 05:33:42;;;;;;;;;25.33;24.33;;;;;19.99;69.23;100604.44;4823993;29;46419;-73
2023/07/02 05:36:08;;;;;;;;;28.33;25.67;;;;;20.05;69.10;100600.69;4824697;29;45371;-73
2023/07/02 05:38:33;;;;;;;;;31.33;25.33;;;;;20.16;69.40;100611.22;4822799;29;45532;-73
2023/07/02 05:41:05;;;;;;;;;29.00;26.67;;;;;20.31;69.22;100607.19;4823091;29;45426;-73
2023/07/02 05:43:31;;;;;;;;;20.33;20.33;;;;;20.15;69.28;100602.22;4823789;29;46806;-74
2023/07/02 05:46:02;;;;;;;;;27.67;25.67;;;;;20.21;69.13;100611.09;4822889;29;45512;-74
2023/07/02 05:48:27;;;;;;;;;28.67;23.00;;;;;20.18;68.75;100614.78;4823007;29;45592;-73
2023/07/02 05:50:54;;;;;;;;;28.33;27.00;;;;;20.18;68.80;100612.94;4824666;29;45495;-73
2023/07/02 05:53:19;;;;;;;;;29.33;23.00;;;;;20.21;68.91;100616.50;4823346;29;46235;-73
2023/07/02 05:55:45;;;;;;;;;27.67;26.00;;;;;20.27;68.74;100625.31;4825207;29;45777;-73
2023/07/02 05:58:10;;;;;;;;;32.00;27.33;;;;;20.31;68.73;100623.41;4822972;29;45377;-73
2023/07/02 06:00:36;;;;;;;;;31.00;30.00;;;;;20.28;68.37;100618.06;4824968;29;45376;-73
2023/07/02 06:03:01;;;;;;;;;36.33;28.00;;;;;20.38;68.39;100625.03;4824499;29;45392;-74
2023/07/02 06:05:27;;;;;;;;;26.33;20.33;;;;;20.44;68.31;100616.75;4823983;29;45448;-73
2023/07/02 06:07:53;;;;;;;;;25.67;25.33;;;;;20.51;68.13;100621.03;4822313;29;45449;-74
2023/07/02 06:10:18;;;;;;;;;24.67;22.00;;;;;20.61;67.91;100627.09;4822674;29;45573;-73
2023/07/02 06:12:44;;;;;;;;;25.33;23.00;;;;;20.68;67.40;100633.19;4823471;29;46517;-74
2023/07/02 06:15:10;;;;;;;;;27.67;25.00;;;;;20.69;67.44;100624.16;4822288;29;45784;-73
2023/07/02 06:17:37;;;;;;;;;32.33;28.00;;;;;20.84;67.24;100631.78;4822112;29;45451;-74
2023/07/02 06:20:06;;;;;;;;;28.67;25.67;;;;;20.79;66.75;100625.66;4823743;29;45542;-74
2023/07/02 06:22:31;;;;;;;;;31.33;25.00;;;;;20.81;67.35;100631.03;4823369;29;45475;-74
2023/07/02 06:24:57;;;;;;;;;29.67;25.33;;;;;20.80;66.89;100632.81;4823131;29;51739;-73
2023/07/02 06:27:22;;;;;;;;;27.00;23.33;;;;;20.87;66.91;100637.13;4823815;29;45473;-73
2023/07/02 06:29:48;;;;;;;;;33.00;27.00;;;;;20.92;67.04;100643.25;4824003;29;45359;-74
2023/07/02 06:32:13;;;;;;;;;24.33;22.67;;;;;20.92;66.39;100647.78;4822002;29;45520;-74
2023/07/02 06:34:38;;;;;;;;;27.33;26.67;;;;;20.94;66.32;100649.50;4824587;29;45424;-73
2023/07/02 06:37:04;;;;;;;;;27.67;25.33;;;;;20.99;66.66;100652.09;4825478;29;45458;-73
2023/07/02 06:39:30;;;;;;;;;29.67;23.00;;;;;20.97;66.08;100652.13;4825307;29;45973;-73
2023/07/02 06:41:55;;;;;;;;;28.00;23.67;;;;;21.02;66.05;100656.50;4825256;29;46352;-74
2023/07/02 06:44:21;;;;;;;;;29.33;25.67;;;;;21.07;66.12;100654.56;4825148;29;45718;-73
2023/07/02 06:46:46;;;;;;;;;23.67;23.67;;;;;21.18;65.72;100657.78;4824865;29;45504;-73
2023/07/02 06:49:12;;;;;;;;;23.67;23.00;;;;;21.41;65.45;100664.28;4825154;29;45414;-73
2023/07/02 06:51:37;;;;;;;;;20.67;20.33;;;;;21.43;65.52;100654.34;4826347;29;45449;-73
2023/07/02 06:54:02;;;;;;;;;26.33;25.67;;;;;21.44;64.78;100666.94;4826436;29;45893;-74
2023/07/02 06:56:28;;;;;;;;;30.00;24.33;;;;;21.48;64.92;100665.91;4826401;29;45507;-74
2023/07/02 06:58:53;;;;;;;;;27.67;23.00;;;;;21.50;64.70;100664.94;4826195;29;45557;-73
2023/07/02 07:01:19;;;;;;;;;27.33;24.67;;;;;21.65;64.13;100670.75;4824948;29;48087;-74
2023/07/02 07:03:44;;;;;;;;;24.67;23.00;;;;;21.47;63.72;100666.84;4826988;29;45507;-73
2023/07/02 07:06:11;;;;;;;;;32.00;27.33;;;;;21.32;64.57;100658.25;4826480;29;45493;-73
2023/07/02 07:08:39;;;;;;;;;29.33;27.33;;;;;21.49;64.46;100668.59;4826524;29;45411;-74
2023/07/02 07:11:04;;;;;;;;;35.00;28.33;;;;;21.47;64.91;100670.44;4826691;29;45485;-73
2023/07/02 07:13:30;;;;;;;;;28.00;25.33;;;;;21.52;64.38;100670.28;4824297;29;45437;-73
2023/07/02 07:15:55;;;;;;;;;32.33;25.67;;;;;21.52;64.17;100673.00;4826593;29;45865;-73
2023/07/02 07:18:20;;;;;;;;;29.00;24.67;;;;;21.47;63.97;100666.84;4826374;29;45461;-73
2023/07/02 07:20:46;;;;;;;;;29.33;26.67;;;;;21.40;64.82;100666.13;4825101;29;47280;-74
2023/07/02 07:23:11;;;;;;;;;28.33;24.00;;;;;21.51;64.52;100668.50;4825749;29;45496;-73
2023/07/02 07:25:38;;;;;;;;;30.33;26.33;;;;;21.91;64.87;100668.06;4825763;29;45509;-74
2023/07/02 07:28:03;;;;;;;;;28.33;26.33;;;;;22.08;63.60;100669.34;4825827;29;45557;-73
2023/07/02 07:30:29;;;;;;;;;25.67;25.00;;;;;22.21;62.65;100669.78;4825850;29;45765;-74
2023/07/02 07:32:54;;;;;;;;;29.00;25.33;;;;;22.23;62.11;100673.31;4825488;29;45537;-75
2023/07/02 07:35:21;;;;;;;;;33.33;28.67;;;;;22.18;62.07;100670.78;4825032;29;45428;-73
2023/07/02 07:37:47;;;;;;;;;31.67;28.67;;;;;22.07;61.78;100678.38;4824496;29;45386;-73
2023/07/02 07:40:13;;;;;;;;;31.00;24.00;;;;;22.08;62.41;100674.75;4840550;29;46236;-72
2023/07/02 07:42:39;;;;;;;;;29.67;24.33;;;;;22.25;62.32;100666.06;4827697;29;45364;-73
2023/07/02 07:45:04;;;;;;;;;27.33;23.67;;;;;22.53;61.41;100666.81;4844210;29;45433;-73
2023/07/02 07:47:30;;;;;;;;;29.00;25.33;;;;;22.79;60.17;100667.69;4843502;29;45787;-73
2023/07/02 07:49:55;;;;;;;;;31.00;26.67;;;;;22.79;59.36;100673.09;4843912;29;45498;-73
2023/07/02 07:52:21;;;;;;;;;27.00;24.00;;;;;22.79;60.36;100674.94;4843853;29;48654;-73
2023/07/02 07:54:46;;;;;;;;;32.00;26.00;;;;;22.85;59.91;100675.59;4827530;29;45573;-73
2023/07/02 07:57:12;;;;;;;;;27.00;25.67;;;;;22.91;59.27;100680.78;4827739;29;45776;-73
2023/07/02 07:59:37;;;;;;;;;20.00;18.33;;;;;22.97;58.46;100680.53;4844490;29;45822;-73
2023/07/02 08:02:04;;;;;;;;;29.67;27.00;;;;;23.05;59.00;100673.97;4844085;29;45466;-73
2023/07/02 08:04:30;;;;;;;;;31.67;27.00;;;;;23.07;59.11;100680.22;4844079;29;45903;-73
2023/07/02 08:06:56;;;;;;;;;24.00;23.33;;;;;23.16;58.85;100688.88;4827854;29;45307;-74
2023/07/02 08:09:22;;;;;;;;;30.67;26.33;;;;;23.26;58.58;100686.69;4844440;29;45444;-73
2023/07/02 08:11:48;;;;;;;;;36.00;30.33;;;;;23.44;58.58;100687.78;4828119;29;45406;-74
2023/07/02 08:14:15;;;;;;;;;24.33;21.00;;;;;23.72;57.16;100683.94;4845096;29;45671;-72
2023/07/02 08:16:41;;;;;;;;;28.33;23.33;;;;;23.84;56.42;100685.31;4844790;29;45528;-74
2023/07/02 08:19:06;;;;;;;;;26.00;24.33;;;;;24.09;56.18;100680.56;4843935;29;45499;-73
2023/07/02 08:21:32;;;;;;;;;27.00;23.00;;;;;24.26;56.22;100682.56;4843139;29;45572;-73
2023/07/02 08:23:57;;;;;;;;;30.00;29.00;;;;;24.38;55.69;100686.59;4826921;29;45461;-73
2023/07/02 08:26:29;;;;;;;;;22.00;18.00;;;;;24.39;55.17;100688.34;4843851;29;45383;-74
2023/07/02 08:28:55;;;;;;;;;17.33;16.33;;;;;24.49;54.38;100688.81;4843642;29;45437;-74
2023/07/02 08:31:20;;;;;;;;;27.67;24.67;;;;;24.49;54.63;100686.97;4843866;29;45444;-73
2023/07/02 08:33:45;;;;;;;;;28.33;28.33;;;;;24.49;53.54;100700.56;4843776;29;45506;-73
2023/07/02 08:36:11;;;;;;;;;21.33;20.33;;;;;24.30;53.55;100696.94;4843624;29;45451;-73
2023/07/02 08:38:39;;;;;;;;;29.67;24.00;;;;;24.29;54.43;100697.84;4841747;29;45380;-75
2023/07/02 08:41:04;;;;;;;;;25.67;22.00;;;;;24.39;54.29;100696.50;4826378;29;45561;-74
2023/07/02 08:43:30;;;;;;;;;27.00;27.00;;;;;24.54;53.75;100704.03;4843643;29;45798;-74
2023/07/02 08:45:56;;;;;;;;;27.33;24.33;;;;;24.53;53.09;100695.94;4844347;29;45761;-73
2023/07/02 08:48:23;;;;;;;;;26.00;21.33;;;;;24.41;53.31;100699.16;4843153;29;45420;-74
2023/07/02 08:50:49;;;;;;;;;32.67;28.00;;;;;24.22;53.46;100705.41;4826123;29;45473;-73
2023/07/02 08:53:15;;;;;;;;;30.67;28.67;;;;;24.07;53.58;100701.50;4825979;29;45553;-73
2023/07/02 08:55:40;;;;;;;;;26.67;23.00;;;;;24.25;53.75;100704.38;4826395;29;45882;-74
2023/07/02 08:58:06;;;;;;;;;22.33;18.67;;;;;24.43;53.15;100699.97;4841657;29;46855;-73
2023/07/02 09:00:36;;;;;;;;;32.67;25.33;;;;;24.56;53.25;100690.34;4826158;29;45545;-73
2023/07/02 09:03:15;;;;;;;;;25.33;23.33;;;;;25.01;52.59;100694.63;4843062;29;45557;-73
2023/07/02 09:05:51;;;;;;;;;27.00;25.00;;;;;25.55;51.60;100683.91;4826298;29;45512;-74
2023/07/02 09:08:27;;;;;;;;;24.33;23.00;;;;;25.70;50.41;100688.59;4843073;29;45399;-73
2023/07/02 09:10:53;;;;;;;;;26.00;24.33;;;;;25.48;50.63;100690.63;4826111;29;45514;-73
2023/07/02 09:13:19;;;;;;;;;23.00;22.00;;;;;25.27;49.05;100682.56;4826585;29;45412;-73
2023/07/02 09:15:45;;;;;;;;;18.67;18.67;;;;;25.07;49.31;100678.03;4827097;29;45418;-73
2023/07/02 09:18:15;;;;;;;;;22.00;21.33;;;;;25.17;48.90;100673.03;4842922;29;45456;-73
2023/07/02 09:20:40;;;;;;;;;20.00;19.33;;;;;25.22;48.80;100671.00;4826152;29;45461;-73
2023/07/02 09:23:06;;;;;;;;;20.00;18.00;;;;;25.45;46.98;100675.34;4843284;29;45391;-74
2023/07/02 09:25:39;;;;;;;;;21.33;20.00;;;;;25.62;46.46;100688.09;4843193;29;45583;-73
2023/07/02 09:28:22;;;;;;;;;21.33;20.00;;;;;25.61;46.78;100683.63;4842459;29;45381;-74
2023/07/02 09:30:58;;;;;;;;;24.67;19.00;;;;;25.47;45.97;100672.50;4841368;29;45458;-74
2023/07/02 09:33:24;;;;;;;;;21.67;20.00;;;;;25.30;47.00;100678.78;4842617;29;45425;-73
2023/07/02 09:35:51;;;;;;;;;24.00;20.33;;;;;25.24;47.64;100677.25;4825665;29;45471;-74
2023/07/02 09:38:16;;;;;;;;;19.00;19.00;;;;;25.11;47.58;100682.38;4842319;29;45815;-74
2023/07/02 09:40:47;;;;;;;;;23.67;20.67;;;;;25.01;46.83;100680.16;4840883;29;45495;-74
2023/07/02 09:43:14;;;;;;;;;18.67;16.67;;;;;24.77;47.57;100677.63;4826194;29;45493;-74
2023/07/02 09:45:43;;;;;;;;;24.67;20.67;;;;;24.79;47.38;100681.16;4842695;29;45418;-74
2023/07/02 09:48:10;;;;;;;;;20.00;19.00;;;;;24.74;46.51;100683.19;4842172;29;45577;-74
2023/07/02 09:50:37;;;;;;;;;18.67;16.67;;;;;24.84;47.71;100681.81;4842545;29;45854;-74
2023/07/02 09:53:03;;;;;;;;;19.67;18.67;;;;;25.10;46.71;100679.72;4840865;29;45468;-73
2023/07/02 09:55:29;;;;;;;;;19.67;19.33;;;;;25.40;47.05;100676.50;4842546;29;45360;-74
2023/07/02 09:57:54;;;;;;;;;19.00;17.33;;;;;25.66;45.31;100678.81;4825331;29;46934;-74
2023/07/02 10:00:19;;;;;;;;;17.33;17.33;;;;;25.56;45.58;100672.06;4825489;29;45415;-73
2023/07/02 10:02:50;;;;;;;;;23.33;18.67;;;;;25.65;45.09;100674.34;4826109;29;45698;-73
2023/07/02 10:05:33;;;;;;;;;23.00;21.33;;;;;25.66;44.73;100681.53;4826404;29;46045;-74
2023/07/02 10:08:13;;;;;;;;;25.00;21.00;;;;;25.57;44.18;100692.88;4825727;29;48335;-73
2023/07/02 10:10:39;;;;;;;;;24.67;21.00;;;;;25.33;45.22;100675.94;4844339;29;45581;-72
2023/07/02 10:13:04;;;;;;;;;20.67;18.33;;;;;25.25;45.25;100678.13;4846060;29;45416;-74
2023/07/02 10:15:31;;;;;;;;;22.00;21.00;;;;;25.19;45.41;100687.44;4829236;29;45740;-73
2023/07/02 10:18:01;;;;;;;;;21.33;19.67;;;;;25.34;46.07;100686.72;4845286;29;46058;-72
2023/07/02 10:20:39;;;;;;;;;21.00;19.00;;;;;25.48;44.60;100674.28;4828540;29;45406;-73
2023/07/02 10:23:06;;;;;;;;;26.00;22.67;;;;;25.49;45.68;100676.03;4828884;29;45433;-73
2023/07/02 10:25:34;;;;;;;;;10.00;10.00;;;;;25.35;45.03;100679.47;4845875;29;45446;-74
2023/07/02 10:28:01;;;;;;;;;23.33;22.00;;;;;24.92;45.08;100681.44;4828805;29;47184;-74
2023/07/02 10:30:35;;;;;;;;;22.33;18.67;;;;;24.73;45.25;100681.44;4828488;29;45707;-73
2023/07/02 10:33:15;;;;;;;;;20.67;19.33;;;;;24.57;45.97;100685.81;4845676;29;45352;-74
2023/07/02 10:35:44;;;;;;;;;18.00;16.67;;;;;24.45;45.60;100677.19;4846594;29;45367;-73
2023/07/02 10:38:20;;;;;;;;;23.00;20.00;;;;;24.57;46.00;100685.81;4845668;29;45580;-73
2023/07/02 10:40:46;;;;;;;;;22.33;21.00;;;;;24.59;46.09;100679.34;4844024;29;45353;-73
2023/07/02 10:43:12;;;;;;;;;25.33;22.33;;;;;24.64;46.15;100666.44;4845236;29;45355;-74
2023/07/02 10:45:37;;;;;;;;;21.33;18.67;;;;;24.85;45.99;100669.97;4845002;29;45582;-73
2023/07/02 10:48:04;;;;;;;;;24.00;20.67;;;;;25.08;45.42;100655.28;4844575;29;45455;-74
2023/07/02 10:50:31;;;;;;;;;22.00;22.00;;;;;25.29;45.46;100661.59;4828320;29;45713;-73
2023/07/02 10:52:57;;;;;;;;;23.33;19.00;;;;;25.44;45.12;100662.66;4844688;29;45400;-74
2023/07/02 10:55:24;;;;;;;;;19.33;16.67;;;;;25.23;43.83;100656.44;4844551;29;45450;-73
2023/07/02 10:57:51;;;;;;;;;14.33;13.33;;;;;25.19;44.04;100660.22;4845269;29;45489;-74
2023/07/02 11:00:17;;;;;;;;;25.00;21.33;;;;;25.15;44.45;100661.34;4845251;29;45332;-74
2023/07/02 11:02:43;;;;;;;;;17.67;17.67;;;;;25.24;43.24;100655.47;4827727;29;45371;-74
2023/07/02 11:05:14;;;;;;;;;18.33;17.00;;;;;25.39;44.31;100642.97;4844801;29;45430;-75
2023/07/02 11:07:41;;;;;;;;;16.67;16.00;;;;;25.71;43.49;100652.25;4844355;29;45788;-73